Terminal Aerodrome Forecast
Issued by NWS

Home | Current Version | Previous Version | Text Only | Print | Product List | Glossary On
Versions: 1 2 3 4 5 6 7 8 9 10 11 12 13 14 15 16 17 18 19 20 21 22 23 24 25
000
FTUS46 KMTR 181700 RRA
TAFSFO
TAF
KSFO 181744Z 1818/1924 29013KT P6SM FEW009
     FM182200 28020G27KT P6SM FEW010
     FM190400 28012KT P6SM FEW010
     FM190900 28008KT P6SM BKN015
     FM191400 27012KT P6SM SCT015 BKN250
     FM192100 28016KT P6SM BKN250=

USA.gov is the U.S. government's official web portal to all federal, state and local government web resources and services.